sensor_id;sensor_type;location;lat;lon;timestamp;temperature;humidity
18218;DHT22;9234;49.344;11.120;2023-02-15T00:01:16;1.30;99.90
18218;DHT22;9234;49.344;11.120;2023-02-15T00:03:45;1.20;99.90
18218;DHT22;9234;49.344;11.120;2023-02-15T00:06:15;1.20;99.90
18218;DHT22;9234;49.344;11.120;2023-02-15T00:08:45;1.20;99.90
18218;DHT22;9234;49.344;11.120;2023-02-15T00:11:15;1.20;99.90
18218;DHT22;9234;49.344;11.120;2023-02-15T00:14:09;1.20;99.90
18218;DHT22;9234;49.344;11.120;2023-02-15T00:16:41;1.20;99.90
18218;DHT22;9234;49.344;11.120;2023-02-15T00:19:12;1.10;99.90
18218;DHT22;9234;49.344;11.120;2023-02-15T00:21:42;1.10;99.90
18218;DHT22;9234;49.344;11.120;2023-02-15T00:24:13;1.10;99.90
18218;DHT22;9234;49.344;11.120;2023-02-15T00:26:44;1.10;99.90
18218;DHT22;9234;49.344;11.120;2023-02-15T00:29:14;1.00;99.90
18218;DHT22;9234;49.344;11.120;2023-02-15T00:31:45;1.00;99.90
18218;DHT22;9234;49.344;11.120;2023-02-15T00:34:15;1.00;99.90
18218;DHT22;9234;49.344;11.120;2023-02-15T00:36:45;1.00;99.90
18218;DHT22;9234;49.344;11.120;2023-02-15T00:39:16;1.00;99.90
18218;DHT22;9234;49.344;11.120;2023-02-15T00:41:46;1.00;99.90
18218;DHT22;9234;49.344;11.120;2023-02-15T00:44:15;1.00;99.90
18218;DHT22;9234;49.344;11.120;2023-02-15T00:46:43;0.90;99.90
18218;DHT22;9234;49.344;11.120;2023-02-15T00:49:11;0.90;99.90
18218;DHT22;9234;49.344;11.120;2023-02-15T00:51:40;0.90;99.90
18218;DHT22;9234;49.344;11.120;2023-02-15T00:54:08;0.90;99.90
18218;DHT22;9234;49.344;11.120;2023-02-15T00:56:37;0.90;99.90
18218;DHT22;9234;49.344;11.120;2023-02-15T00:59:08;0.90;99.90
18218;DHT22;9234;49.344;11.120;2023-02-15T01:01:37;0.90;99.90
18218;DHT22;9234;49.344;11.120;2023-02-15T01:04:05;0.80;99.90
18218;DHT22;9234;49.344;11.120;2023-02-15T01:06:33;0.80;99.90
18218;DHT22;9234;49.344;11.120;2023-02-15T01:09:04;0.80;99.90
18218;DHT22;9234;49.344;11.120;2023-02-15T01:11:34;0.80;99.90
18218;DHT22;9234;49.344;11.120;2023-02-15T01:14:03;0.80;99.90
18218;DHT22;9234;49.344;11.120;2023-02-15T01:16:32;0.80;99.90
18218;DHT22;9234;49.344;11.120;2023-02-15T01:19:00;0.80;99.90
18218;DHT22;9234;49.344;11.120;2023-02-15T01:21:31;0.80;99.90
18218;DHT22;9234;49.344;11.120;2023-02-15T01:24:05;0.80;99.90
18218;DHT22;9234;49.344;11.120;2023-02-15T01:26:38;0.80;99.90
18218;DHT22;9234;49.344;11.120;2023-02-15T01:29:10;0.80;99.90
18218;DHT22;9234;49.344;11.120;2023-02-15T01:31:39;0.90;99.90
18218;DHT22;9234;49.344;11.120;2023-02-15T01:34:09;0.80;99.90
18218;DHT22;9234;49.344;11.120;2023-02-15T01:36:38;0.80;99.90
18218;DHT22;9234;49.344;11.120;2023-02-15T01:39:09;0.80;99.90
18218;DHT22;9234;49.344;11.120;2023-02-15T01:41:37;0.80;99.90
18218;DHT22;9234;49.344;11.120;2023-02-15T01:47:25;0.80;99.90
18218;DHT22;9234;49.344;11.120;2023-02-15T01:50:06;0.80;99.90
18218;DHT22;9234;49.344;11.120;2023-02-15T01:52:40;0.80;99.90
18218;DHT22;9234;49.344;11.120;2023-02-15T01:55:12;0.80;99.90
18218;DHT22;9234;49.344;11.120;2023-02-15T01:57:42;0.80;99.90
18218;DHT22;9234;49.344;11.120;2023-02-15T02:00:14;0.70;99.90
18218;DHT22;9234;49.344;11.120;2023-02-15T02:02:49;0.70;99.90
18218;DHT22;9234;49.344;11.120;2023-02-15T02:05:24;0.70;99.90
18218;DHT22;9234;49.344;11.120;2023-02-15T02:07:56;0.70;99.90
18218;DHT22;9234;49.344;11.120;2023-02-15T02:10:26;0.70;99.90
18218;DHT22;9234;49.344;11.120;2023-02-15T02:12:58;0.70;99.90
18218;DHT22;9234;49.344;11.120;2023-02-15T02:15:37;0.70;99.90
18218;DHT22;9234;49.344;11.120;2023-02-15T02:18:24;0.70;99.90
18218;DHT22;9234;49.344;11.120;2023-02-15T02:24:58;0.70;99.90
18218;DHT22;9234;49.344;11.120;2023-02-15T02:27:42;0.70;99.90
18218;DHT22;9234;49.344;11.120;2023-02-15T02:30:40;0.70;99.90
18218;DHT22;9234;49.344;11.120;2023-02-15T02:33:50;0.70;99.90
18218;DHT22;9234;49.344;11.120;2023-02-15T02:36:33;0.60;99.90
18218;DHT22;9234;49.344;11.120;2023-02-15T02:39:19;0.60;99.90
18218;DHT22;9234;49.344;11.120;2023-02-15T02:41:59;0.60;99.90
18218;DHT22;9234;49.344;11.120;2023-02-15T02:44:35;0.60;99.90
18218;DHT22;9234;49.344;11.120;2023-02-15T02:47:14;0.60;99.90
18218;DHT22;9234;49.344;11.120;2023-02-15T02:49:47;0.60;99.90
18218;DHT22;9234;49.344;11.120;2023-02-15T02:52:38;0.60;99.90
18218;DHT22;9234;49.344;11.120;2023-02-15T02:55:11;0.60;99.90
18218;DHT22;9234;49.344;11.120;2023-02-15T02:57:52;0.60;99.90
18218;DHT22;9234;49.344;11.120;2023-02-15T03:00:31;0.60;99.90
18218;DHT22;9234;49.344;11.120;2023-02-15T03:03:06;0.60;99.90
18218;DHT22;9234;49.344;11.120;2023-02-15T03:05:42;0.60;99.90
18218;DHT22;9234;49.344;11.120;2023-02-15T03:08:14;0.60;99.90
18218;DHT22;9234;49.344;11.120;2023-02-15T03:10:50;0.50;99.90
18218;DHT22;9234;49.344;11.120;2023-02-15T03:13:23;0.50;99.90
18218;DHT22;9234;49.344;11.120;2023-02-15T03:15:53;0.50;99.90
18218;DHT22;9234;49.344;11.120;2023-02-15T03:18:44;0.50;99.90
18218;DHT22;9234;49.344;11.120;2023-02-15T03:21:26;0.40;99.90
18218;DHT22;9234;49.344;11.120;2023-02-15T03:24:03;0.50;99.90
18218;DHT22;9234;49.344;11.120;2023-02-15T03:26:36;0.40;99.90
18218;DHT22;9234;49.344;11.120;2023-02-15T03:29:08;0.40;99.90
18218;DHT22;9234;49.344;11.120;2023-02-15T03:31:41;0.40;99.90
18218;DHT22;9234;49.344;11.120;2023-02-15T03:34:14;0.30;99.90
18218;DHT22;9234;49.344;11.120;2023-02-15T03:36:49;0.30;99.90
18218;DHT22;9234;49.344;11.120;2023-02-15T03:39:24;0.30;99.90
18218;DHT22;9234;49.344;11.120;2023-02-15T03:42:04;0.30;99.90
18218;DHT22;9234;49.344;11.120;2023-02-15T03:44:46;0.30;99.90
18218;DHT22;9234;49.344;11.120;2023-02-15T03:47:25;0.30;99.90
18218;DHT22;9234;49.344;11.120;2023-02-15T03:50:00;0.30;99.90
18218;DHT22;9234;49.344;11.120;2023-02-15T03:52:53;0.20;99.90
18218;DHT22;9234;49.344;11.120;2023-02-15T03:55:23;0.20;99.90
18218;DHT22;9234;49.344;11.120;2023-02-15T03:57:52;0.30;99.90
18218;DHT22;9234;49.344;11.120;2023-02-15T04:00:40;0.20;99.90
18218;DHT22;9234;49.344;11.120;2023-02-15T04:03:38;0.20;99.90
18218;DHT22;9234;49.344;11.120;2023-02-15T04:06:08;0.30;99.90
18218;DHT22;9234;49.344;11.120;2023-02-15T04:08:37;0.30;99.90
18218;DHT22;9234;49.344;11.120;2023-02-15T04:11:23;0.30;99.90
18218;DHT22;9234;49.344;11.120;2023-02-15T04:13:52;0.30;99.90
18218;DHT22;9234;49.344;11.120;2023-02-15T04:16:23;0.30;99.90
18218;DHT22;9234;49.344;11.120;2023-02-15T04:18:51;0.30;99.90
18218;DHT22;9234;49.344;11.120;2023-02-15T04:21:37;0.30;99.90
18218;DHT22;9234;49.344;11.120;2023-02-15T04:24:24;0.30;99.90
18218;DHT22;9234;49.344;11.120;2023-02-15T04:27:10;0.30;99.90
18218;DHT22;9234;49.344;11.120;2023-02-15T04:29:38;0.30;99.90
18218;DHT22;9234;49.344;11.120;2023-02-15T04:32:06;0.30;99.90
18218;DHT22;9234;49.344;11.120;2023-02-15T04:34:35;0.30;99.90
18218;DHT22;9234;49.344;11.120;2023-02-15T04:37:03;0.20;99.90
18218;DHT22;9234;49.344;11.120;2023-02-15T04:39:33;0.20;99.90
18218;DHT22;9234;49.344;11.120;2023-02-15T04:42:01;0.20;99.90
18218;DHT22;9234;49.344;11.120;2023-02-15T04:44:29;0.20;99.90
18218;DHT22;9234;49.344;11.120;2023-02-15T04:46:57;0.20;99.90
18218;DHT22;9234;49.344;11.120;2023-02-15T04:49:25;0.20;99.90
18218;DHT22;9234;49.344;11.120;2023-02-15T04:51:54;0.20;99.90
18218;DHT22;9234;49.344;11.120;2023-02-15T04:54:22;0.20;99.90
18218;DHT22;9234;49.344;11.120;2023-02-15T04:56:51;0.20;99.90
18218;DHT22;9234;49.344;11.120;2023-02-15T04:59:19;0.20;99.90
18218;DHT22;9234;49.344;11.120;2023-02-15T05:01:48;0.20;99.90
18218;DHT22;9234;49.344;11.120;2023-02-15T05:04:16;0.20;99.90
18218;DHT22;9234;49.344;11.120;2023-02-15T05:06:44;0.30;99.90
18218;DHT22;9234;49.344;11.120;2023-02-15T05:09:13;0.30;99.90
18218;DHT22;9234;49.344;11.120;2023-02-15T05:11:42;0.30;99.90
18218;DHT22;9234;49.344;11.120;2023-02-15T05:14:11;0.20;99.90
18218;DHT22;9234;49.344;11.120;2023-02-15T05:16:40;0.20;99.90
18218;DHT22;9234;49.344;11.120;2023-02-15T05:19:08;0.20;99.90
18218;DHT22;9234;49.344;11.120;2023-02-15T05:21:37;0.20;99.90
18218;DHT22;9234;49.344;11.120;2023-02-15T05:24:05;0.20;99.90
18218;DHT22;9234;49.344;11.120;2023-02-15T05:26:55;0.20;99.90
18218;DHT22;9234;49.344;11.120;2023-02-15T05:29:42;0.20;99.90
18218;DHT22;9234;49.344;11.120;2023-02-15T05:32:12;0.20;99.90
18218;DHT22;9234;49.344;11.120;2023-02-15T05:34:41;0.20;99.90
18218;DHT22;9234;49.344;11.120;2023-02-15T05:37:09;0.20;99.90
18218;DHT22;9234;49.344;11.120;2023-02-15T05:39:37;0.20;99.90
18218;DHT22;9234;49.344;11.120;2023-02-15T05:42:05;0.20;99.90
18218;DHT22;9234;49.344;11.120;2023-02-15T05:44:34;0.20;99.90
18218;DHT22;9234;49.344;11.120;2023-02-15T05:47:03;0.20;99.90
18218;DHT22;9234;49.344;11.120;2023-02-15T05:49:33;0.20;99.90
18218;DHT22;9234;49.344;11.120;2023-02-15T05:52:03;0.10;99.90
18218;DHT22;9234;49.344;11.120;2023-02-15T05:54:31;0.10;99.90
18218;DHT22;9234;49.344;11.120;2023-02-15T05:56:59;0.10;99.90
18218;DHT22;9234;49.344;11.120;2023-02-15T05:59:27;0.10;99.90
18218;DHT22;9234;49.344;11.120;2023-02-15T06:01:56;0.10;99.90
18218;DHT22;9234;49.344;11.120;2023-02-15T06:04:25;0.10;99.90
18218;DHT22;9234;49.344;11.120;2023-02-15T06:06:54;0.10;99.90
18218;DHT22;9234;49.344;11.120;2023-02-15T06:09:22;0.10;99.90
18218;DHT22;9234;49.344;11.120;2023-02-15T06:11:50;0.10;99.90
18218;DHT22;9234;49.344;11.120;2023-02-15T06:14:18;0.10;99.90
18218;DHT22;9234;49.344;11.120;2023-02-15T06:16:46;0.10;99.90
18218;DHT22;9234;49.344;11.120;2023-02-15T06:19:15;0.10;99.90
18218;DHT22;9234;49.344;11.120;2023-02-15T06:21:44;0.10;99.90
18218;DHT22;9234;49.344;11.120;2023-02-15T06:24:13;0.10;99.90
18218;DHT22;9234;49.344;11.120;2023-02-15T06:26:41;0.10;99.90
18218;DHT22;9234;49.344;11.120;2023-02-15T06:29:09;0.10;99.90
18218;DHT22;9234;49.344;11.120;2023-02-15T06:31:37;0.10;99.90
18218;DHT22;9234;49.344;11.120;2023-02-15T06:34:06;0.10;99.90
18218;DHT22;9234;49.344;11.120;2023-02-15T06:36:34;0.10;99.90
18218;DHT22;9234;49.344;11.120;2023-02-15T06:39:04;0.10;99.90
18218;DHT22;9234;49.344;11.120;2023-02-15T06:41:32;0.10;99.90
18218;DHT22;9234;49.344;11.120;2023-02-15T06:44:02;0.10;99.90
18218;DHT22;9234;49.344;11.120;2023-02-15T06:46:31;0.10;99.90
18218;DHT22;9234;49.344;11.120;2023-02-15T06:48:59;0.10;99.90
18218;DHT22;9234;49.344;11.120;2023-02-15T06:51:27;0.10;99.90
18218;DHT22;9234;49.344;11.120;2023-02-15T06:53:55;0.00;99.90
18218;DHT22;9234;49.344;11.120;2023-02-15T06:56:25;0.10;99.90
18218;DHT22;9234;49.344;11.120;2023-02-15T06:58:53;0.10;99.90
18218;DHT22;9234;49.344;11.120;2023-02-15T07:01:21;0.10;99.90
18218;DHT22;9234;49.344;11.120;2023-02-15T07:03:50;0.10;99.90
18218;DHT22;9234;49.344;11.120;2023-02-15T07:06:18;0.10;99.90
18218;DHT22;9234;49.344;11.120;2023-02-15T07:08:46;0.10;99.90
18218;DHT22;9234;49.344;11.120;2023-02-15T07:11:14;0.10;99.90
18218;DHT22;9234;49.344;11.120;2023-02-15T07:14:00;0.10;99.90
18218;DHT22;9234;49.344;11.120;2023-02-15T07:16:29;0.10;99.90
18218;DHT22;9234;49.344;11.120;2023-02-15T07:18:57;0.20;99.90
18218;DHT22;9234;49.344;11.120;2023-02-15T07:21:25;0.20;99.90
18218;DHT22;9234;49.344;11.120;2023-02-15T07:23:56;0.20;99.90
18218;DHT22;9234;49.344;11.120;2023-02-15T07:26:27;0.20;99.90
18218;DHT22;9234;49.344;11.120;2023-02-15T07:28:56;0.30;99.90
18218;DHT22;9234;49.344;11.120;2023-02-15T07:31:25;0.30;99.90
18218;DHT22;9234;49.344;11.120;2023-02-15T07:33:53;0.30;99.90
18218;DHT22;9234;49.344;11.120;2023-02-15T07:36:21;0.30;99.90
18218;DHT22;9234;49.344;11.120;2023-02-15T07:38:50;0.30;99.90
18218;DHT22;9234;49.344;11.120;2023-02-15T07:41:18;0.30;99.90
18218;DHT22;9234;49.344;11.120;2023-02-15T07:43:46;0.40;99.90
18218;DHT22;9234;49.344;11.120;2023-02-15T07:46:16;0.40;99.90
18218;DHT22;9234;49.344;11.120;2023-02-15T07:48:47;0.40;99.90
18218;DHT22;9234;49.344;11.120;2023-02-15T07:51:15;0.40;99.90
18218;DHT22;9234;49.344;11.120;2023-02-15T07:53:43;0.50;99.90
18218;DHT22;9234;49.344;11.120;2023-02-15T07:56:13;0.50;99.90
18218;DHT22;9234;49.344;11.120;2023-02-15T07:58:42;0.50;99.90
18218;DHT22;9234;49.344;11.120;2023-02-15T08:01:22;0.50;99.90
18218;DHT22;9234;49.344;11.120;2023-02-15T08:03:53;0.50;99.90
18218;DHT22;9234;49.344;11.120;2023-02-15T08:06:23;0.50;99.90
18218;DHT22;9234;49.344;11.120;2023-02-15T08:08:53;0.50;99.90
18218;DHT22;9234;49.344;11.120;2023-02-15T08:11:23;0.50;99.90
18218;DHT22;9234;49.344;11.120;2023-02-15T08:14:00;0.50;99.90
18218;DHT22;9234;49.344;11.120;2023-02-15T08:16:32;0.60;99.90
18218;DHT22;9234;49.344;11.120;2023-02-15T08:19:06;0.60;99.90
18218;DHT22;9234;49.344;11.120;2023-02-15T08:21:37;0.60;99.90
18218;DHT22;9234;49.344;11.120;2023-02-15T08:24:07;0.70;99.90
18218;DHT22;9234;49.344;11.120;2023-02-15T08:26:37;0.70;99.90
18218;DHT22;9234;49.344;11.120;2023-02-15T08:29:08;0.70;99.90
18218;DHT22;9234;49.344;11.120;2023-02-15T08:31:37;0.70;99.90
18218;DHT22;9234;49.344;11.120;2023-02-15T08:34:10;0.70;99.90
18218;DHT22;9234;49.344;11.120;2023-02-15T08:36:41;0.80;99.90
18218;DHT22;9234;49.344;11.120;2023-02-15T08:39:12;0.80;99.90
18218;DHT22;9234;49.344;11.120;2023-02-15T08:41:43;0.90;99.90
18218;DHT22;9234;49.344;11.120;2023-02-15T08:44:14;0.90;99.90
18218;DHT22;9234;49.344;11.120;2023-02-15T08:46:45;0.90;99.90
18218;DHT22;9234;49.344;11.120;2023-02-15T08:49:18;0.90;99.90
18218;DHT22;9234;49.344;11.120;2023-02-15T08:51:48;1.00;99.90
18218;DHT22;9234;49.344;11.120;2023-02-15T08:54:18;1.10;99.90
18218;DHT22;9234;49.344;11.120;2023-02-15T08:56:48;1.10;99.90
18218;DHT22;9234;49.344;11.120;2023-02-15T08:59:18;1.20;99.90
18218;DHT22;9234;49.344;11.120;2023-02-15T09:01:49;1.30;99.90
18218;DHT22;9234;49.344;11.120;2023-02-15T09:04:21;1.30;99.90
18218;DHT22;9234;49.344;11.120;2023-02-15T09:06:49;1.30;99.90
18218;DHT22;9234;49.344;11.120;2023-02-15T09:09:19;1.40;99.90
18218;DHT22;9234;49.344;11.120;2023-02-15T09:11:48;1.40;99.90
18218;DHT22;9234;49.344;11.120;2023-02-15T09:14:25;1.50;99.90
18218;DHT22;9234;49.344;11.120;2023-02-15T09:16:54;1.60;99.90
18218;DHT22;9234;49.344;11.120;2023-02-15T09:19:24;1.60;99.90
18218;DHT22;9234;49.344;11.120;2023-02-15T09:21:53;1.70;99.90
18218;DHT22;9234;49.344;11.120;2023-02-15T09:24:21;1.80;99.90
18218;DHT22;9234;49.344;11.120;2023-02-15T09:26:49;1.80;99.90
18218;DHT22;9234;49.344;11.120;2023-02-15T09:29:18;1.90;99.90
18218;DHT22;9234;49.344;11.120;2023-02-15T09:31:49;1.90;99.90
18218;DHT22;9234;49.344;11.120;2023-02-15T09:34:20;1.90;99.90
18218;DHT22;9234;49.344;11.120;2023-02-15T09:36:51;2.00;99.90
18218;DHT22;9234;49.344;11.120;2023-02-15T09:39:21;2.00;99.90
18218;DHT22;9234;49.344;11.120;2023-02-15T09:42:10;2.10;99.90
18218;DHT22;9234;49.344;11.120;2023-02-15T09:45:03;2.10;99.90
18218;DHT22;9234;49.344;11.120;2023-02-15T09:48:02;2.00;99.90
18218;DHT22;9234;49.344;11.120;2023-02-15T09:50:55;2.10;99.90
18218;DHT22;9234;49.344;11.120;2023-02-15T09:53:50;2.20;99.90
18218;DHT22;9234;49.344;11.120;2023-02-15T09:56:31;2.30;99.90
18218;DHT22;9234;49.344;11.120;2023-02-15T09:59:11;2.30;99.90
18218;DHT22;9234;49.344;11.120;2023-02-15T10:01:53;2.30;99.90
18218;DHT22;9234;49.344;11.120;2023-02-15T10:04:43;2.40;99.90
18218;DHT22;9234;49.344;11.120;2023-02-15T10:07:36;2.40;99.90
18218;DHT22;9234;49.344;11.120;2023-02-15T10:10:31;2.40;99.90
18218;DHT22;9234;49.344;11.120;2023-02-15T10:13:21;2.40;99.90
18218;DHT22;9234;49.344;11.120;2023-02-15T10:16:10;2.50;99.90
18218;DHT22;9234;49.344;11.120;2023-02-15T10:18:54;2.60;99.90
18218;DHT22;9234;49.344;11.120;2023-02-15T10:21:39;2.60;99.90
18218;DHT22;9234;49.344;11.120;2023-02-15T10:24:33;2.70;99.90
18218;DHT22;9234;49.344;11.120;2023-02-15T10:27:19;2.80;99.90
18218;DHT22;9234;49.344;11.120;2023-02-15T10:29:56;2.90;99.90
18218;DHT22;9234;49.344;11.120;2023-02-15T10:32:41;2.90;99.90
18218;DHT22;9234;49.344;11.120;2023-02-15T10:35:27;3.00;99.90
18218;DHT22;9234;49.344;11.120;2023-02-15T10:38:20;3.00;99.90
18218;DHT22;9234;49.344;11.120;2023-02-15T10:41:08;3.10;99.90
18218;DHT22;9234;49.344;11.120;2023-02-15T10:44:00;3.20;99.90
18218;DHT22;9234;49.344;11.120;2023-02-15T10:47:00;3.20;99.90
18218;DHT22;9234;49.344;11.120;2023-02-15T10:50:02;3.30;99.90
18218;DHT22;9234;49.344;11.120;2023-02-15T10:52:51;3.40;99.90
18218;DHT22;9234;49.344;11.120;2023-02-15T10:55:38;3.50;99.90
18218;DHT22;9234;49.344;11.120;2023-02-15T10:58:20;3.60;99.90
18218;DHT22;9234;49.344;11.120;2023-02-15T11:01:07;3.60;99.90
18218;DHT22;9234;49.344;11.120;2023-02-15T11:04:12;3.70;99.90
18218;DHT22;9234;49.344;11.120;2023-02-15T11:07:04;3.80;99.90
18218;DHT22;9234;49.344;11.120;2023-02-15T11:09:43;4.00;99.90
18218;DHT22;9234;49.344;11.120;2023-02-15T11:12:18;4.10;99.90
18218;DHT22;9234;49.344;11.120;2023-02-15T11:14:52;4.20;99.90
18218;DHT22;9234;49.344;11.120;2023-02-15T11:17:33;4.30;99.90
18218;DHT22;9234;49.344;11.120;2023-02-15T11:20:15;4.40;99.90
18218;DHT22;9234;49.344;11.120;2023-02-15T11:22:48;4.50;99.90
18218;DHT22;9234;49.344;11.120;2023-02-15T11:25:23;4.70;99.90
18218;DHT22;9234;49.344;11.120;2023-02-15T11:27:55;4.80;99.90
18218;DHT22;9234;49.344;11.120;2023-02-15T11:30:26;4.90;99.90
18218;DHT22;9234;49.344;11.120;2023-02-15T11:33:01;5.00;99.90
18218;DHT22;9234;49.344;11.120;2023-02-15T11:35:36;5.00;99.90
18218;DHT22;9234;49.344;11.120;2023-02-15T11:38:18;5.00;99.90
18218;DHT22;9234;49.344;11.120;2023-02-15T11:40:50;5.00;99.90
18218;DHT22;9234;49.344;11.120;2023-02-15T11:43:27;5.00;99.90
18218;DHT22;9234;49.344;11.120;2023-02-15T11:46:00;5.00;99.90
18218;DHT22;9234;49.344;11.120;2023-02-15T11:48:31;5.10;99.90
18218;DHT22;9234;49.344;11.120;2023-02-15T11:51:02;5.20;99.90
18218;DHT22;9234;49.344;11.120;2023-02-15T11:53:33;5.30;99.90
18218;DHT22;9234;49.344;11.120;2023-02-15T11:56:04;5.40;99.90
18218;DHT22;9234;49.344;11.120;2023-02-15T11:58:43;5.60;99.90
18218;DHT22;9234;49.344;11.120;2023-02-15T12:01:16;5.80;99.90
18218;DHT22;9234;49.344;11.120;2023-02-15T12:03:53;6.10;99.90
18218;DHT22;9234;49.344;11.120;2023-02-15T12:06:26;6.20;99.90
18218;DHT22;9234;49.344;11.120;2023-02-15T12:09:02;6.40;99.90
18218;DHT22;9234;49.344;11.120;2023-02-15T12:11:37;6.60;99.90
18218;DHT22;9234;49.344;11.120;2023-02-15T12:14:08;6.70;99.90
18218;DHT22;9234;49.344;11.120;2023-02-15T12:16:43;6.90;99.90
18218;DHT22;9234;49.344;11.120;2023-02-15T12:19:28;7.10;99.90
18218;DHT22;9234;49.344;11.120;2023-02-15T12:22:01;7.10;99.90
18218;DHT22;9234;49.344;11.120;2023-02-15T12:24:36;7.30;99.90
18218;DHT22;9234;49.344;11.120;2023-02-15T12:27:14;7.60;99.90
18218;DHT22;9234;49.344;11.120;2023-02-15T12:29:47;7.90;99.90
18218;DHT22;9234;49.344;11.120;2023-02-15T12:32:23;8.10;99.90
18218;DHT22;9234;49.344;11.120;2023-02-15T12:34:59;8.40;99.90
18218;DHT22;9234;49.344;11.120;2023-02-15T12:37:30;8.50;99.90
18218;DHT22;9234;49.344;11.120;2023-02-15T12:40:11;8.70;99.90
18218;DHT22;9234;49.344;11.120;2023-02-15T12:42:48;9.00;99.90
18218;DHT22;9234;49.344;11.120;2023-02-15T12:45:25;9.10;99.90
18218;DHT22;9234;49.344;11.120;2023-02-15T12:48:09;9.30;99.90
18218;DHT22;9234;49.344;11.120;2023-02-15T12:50:45;9.50;99.90
18218;DHT22;9234;49.344;11.120;2023-02-15T12:53:22;9.50;99.90
18218;DHT22;9234;49.344;11.120;2023-02-15T12:56:02;9.40;99.90
18218;DHT22;9234;49.344;11.120;2023-02-15T12:58:32;9.50;99.90
18218;DHT22;9234;49.344;11.120;2023-02-15T13:01:04;9.60;99.90
18218;DHT22;9234;49.344;11.120;2023-02-15T13:03:55;9.70;99.90
18218;DHT22;9234;49.344;11.120;2023-02-15T13:06:27;9.60;99.90
18218;DHT22;9234;49.344;11.120;2023-02-15T13:09:06;9.70;99.90
18218;DHT22;9234;49.344;11.120;2023-02-15T13:11:42;10.00;99.90
18218;DHT22;9234;49.344;11.120;2023-02-15T13:14:17;10.30;99.90
18218;DHT22;9234;49.344;11.120;2023-02-15T13:16:48;10.60;99.90
18218;DHT22;9234;49.344;11.120;2023-02-15T13:19:22;10.90;99.90
18218;DHT22;9234;49.344;11.120;2023-02-15T13:22:02;11.10;99.90
18218;DHT22;9234;49.344;11.120;2023-02-15T13:24:35;11.30;99.90
18218;DHT22;9234;49.344;11.120;2023-02-15T13:27:12;11.40;99.90
18218;DHT22;9234;49.344;11.120;2023-02-15T13:29:44;11.60;99.90
18218;DHT22;9234;49.344;11.120;2023-02-15T13:32:25;11.60;99.90
18218;DHT22;9234;49.344;11.120;2023-02-15T13:34:57;11.60;99.90
18218;DHT22;9234;49.344;11.120;2023-02-15T13:37:42;11.80;99.90
18218;DHT22;9234;49.344;11.120;2023-02-15T13:40:25;12.10;99.90
18218;DHT22;9234;49.344;11.120;2023-02-15T13:43:02;12.30;99.90
18218;DHT22;9234;49.344;11.120;2023-02-15T13:45:56;12.50;99.90
18218;DHT22;9234;49.344;11.120;2023-02-15T13:48:41;12.70;99.90
18218;DHT22;9234;49.344;11.120;2023-02-15T13:51:21;12.80;99.90
18218;DHT22;9234;49.344;11.120;2023-02-15T13:54:16;12.80;99.90
18218;DHT22;9234;49.344;11.120;2023-02-15T13:57:11;12.90;99.90
18218;DHT22;9234;49.344;11.120;2023-02-15T14:00:00;12.80;99.70
18218;DHT22;9234;49.344;11.120;2023-02-15T14:03:12;12.70;99.90
18218;DHT22;9234;49.344;11.120;2023-02-15T14:06:26;12.80;99.10
18218;DHT22;9234;49.344;11.120;2023-02-15T14:09:18;12.70;98.80
18218;DHT22;9234;49.344;11.120;2023-02-15T14:12:06;12.40;98.10
18218;DHT22;9234;49.344;11.120;2023-02-15T14:15:09;12.20;98.70
18218;DHT22;9234;49.344;11.120;2023-02-15T14:18:00;11.90;98.70
18218;DHT22;9234;49.344;11.120;2023-02-15T14:20:47;11.40;98.70
18218;DHT22;9234;49.344;11.120;2023-02-15T14:23:36;10.90;99.30
18218;DHT22;9234;49.344;11.120;2023-02-15T14:26:18;10.60;99.90
18218;DHT22;9234;49.344;11.120;2023-02-15T14:29:01;10.50;99.90
18218;DHT22;9234;49.344;11.120;2023-02-15T14:31:45;10.30;99.90
18218;DHT22;9234;49.344;11.120;2023-02-15T14:34:20;10.30;99.90
18218;DHT22;9234;49.344;11.120;2023-02-15T14:36:51;10.30;99.90
18218;DHT22;9234;49.344;11.120;2023-02-15T14:39:28;10.20;99.90
18218;DHT22;9234;49.344;11.120;2023-02-15T14:42:29;10.20;99.90
18218;DHT22;9234;49.344;11.120;2023-02-15T14:45:15;9.90;99.90
18218;DHT22;9234;49.344;11.120;2023-02-15T14:47:51;9.70;99.90
18218;DHT22;9234;49.344;11.120;2023-02-15T14:50:39;9.70;99.90
18218;DHT22;9234;49.344;11.120;2023-02-15T14:53:34;9.70;99.90
18218;DHT22;9234;49.344;11.120;2023-02-15T14:56:18;9.70;99.90
18218;DHT22;9234;49.344;11.120;2023-02-15T14:58:58;9.60;99.90
18218;DHT22;9234;49.344;11.120;2023-02-15T15:01:31;9.50;99.90
18218;DHT22;9234;49.344;11.120;2023-02-15T15:04:03;9.30;99.90
18218;DHT22;9234;49.344;11.120;2023-02-15T15:06:37;9.20;99.90
18218;DHT22;9234;49.344;11.120;2023-02-15T15:09:12;9.10;99.90
18218;DHT22;9234;49.344;11.120;2023-02-15T15:11:48;8.90;99.90
18218;DHT22;9234;49.344;11.120;2023-02-15T15:14:40;8.70;99.90
18218;DHT22;9234;49.344;11.120;2023-02-15T15:17:11;8.50;99.90
18218;DHT22;9234;49.344;11.120;2023-02-15T15:19:57;8.40;99.90
18218;DHT22;9234;49.344;11.120;2023-02-15T15:22:27;8.20;99.90
18218;DHT22;9234;49.344;11.120;2023-02-15T15:24:58;8.10;99.90
18218;DHT22;9234;49.344;11.120;2023-02-15T15:27:42;7.90;99.90
18218;DHT22;9234;49.344;11.120;2023-02-15T15:37:35;7.40;99.90
18218;DHT22;9234;49.344;11.120;2023-02-15T15:40:57;7.10;99.90
18218;DHT22;9234;49.344;11.120;2023-02-15T15:44:07;6.80;99.90
18218;DHT22;9234;49.344;11.120;2023-02-15T15:47:07;6.60;99.90
18218;DHT22;9234;49.344;11.120;2023-02-15T15:49:44;6.50;99.90
18218;DHT22;9234;49.344;11.120;2023-02-15T15:52:14;6.30;99.90
18218;DHT22;9234;49.344;11.120;2023-02-15T15:54:46;6.10;99.90
18218;DHT22;9234;49.344;11.120;2023-02-15T15:57:25;5.90;99.90
18218;DHT22;9234;49.344;11.120;2023-02-15T15:59:57;5.80;99.90
18218;DHT22;9234;49.344;11.120;2023-02-15T16:02:28;5.60;99.90
18218;DHT22;9234;49.344;11.120;2023-02-15T16:05:06;5.50;99.90
18218;DHT22;9234;49.344;11.120;2023-02-15T16:07:36;5.30;99.90
18218;DHT22;9234;49.344;11.120;2023-02-15T16:10:06;5.20;99.90
18218;DHT22;9234;49.344;11.120;2023-02-15T16:12:47;5.10;99.90
18218;DHT22;9234;49.344;11.120;2023-02-15T16:15:19;4.90;99.90
18218;DHT22;9234;49.344;11.120;2023-02-15T16:17:53;4.80;99.90
18218;DHT22;9234;49.344;11.120;2023-02-15T16:20:26;4.70;99.90
18218;DHT22;9234;49.344;11.120;2023-02-15T16:23:16;4.60;99.90
18218;DHT22;9234;49.344;11.120;2023-02-15T16:25:58;4.40;99.90
18218;DHT22;9234;49.344;11.120;2023-02-15T16:28:33;4.30;99.90
18218;DHT22;9234;49.344;11.120;2023-02-15T16:31:11;4.10;99.90
18218;DHT22;9234;49.344;11.120;2023-02-15T16:33:43;4.00;99.90
18218;DHT22;9234;49.344;11.120;2023-02-15T16:36:20;3.90;99.90
18218;DHT22;9234;49.344;11.120;2023-02-15T16:39:18;3.70;99.90
18218;DHT22;9234;49.344;11.120;2023-02-15T16:41:48;3.60;99.90
18218;DHT22;9234;49.344;11.120;2023-02-15T16:44:18;3.50;99.90
18218;DHT22;9234;49.344;11.120;2023-02-15T16:46:50;3.30;99.90
18218;DHT22;9234;49.344;11.120;2023-02-15T16:49:24;3.20;99.90
18218;DHT22;9234;49.344;11.120;2023-02-15T16:51:56;3.10;99.90
18218;DHT22;9234;49.344;11.120;2023-02-15T16:54:28;3.00;99.90